sensor_id;sensor_type;location;lat;lon;timestamp;pressure;altitude;pressure_sealevel;temperature;humidity
68107;BME280;54892;47.488;19.026;2023-08-08T00:01:35;99966.47;;;15.80;66.19
68107;BME280;54892;47.488;19.026;2023-08-08T00:04:39;99965.19;;;15.78;66.28
68107;BME280;54892;47.488;19.026;2023-08-08T00:07:42;99965.69;;;15.80;66.18
68107;BME280;54892;47.488;19.026;2023-08-08T00:10:45;99960.94;;;15.77;66.05
68107;BME280;54892;47.488;19.026;2023-08-08T00:13:50;99972.09;;;15.79;66.13
68107;BME280;54892;47.488;19.026;2023-08-08T00:16:53;99969.94;;;15.81;65.72
68107;BME280;54892;47.488;19.026;2023-08-08T00:19:57;99976.91;;;15.77;66.33
68107;BME280;54892;47.488;19.026;2023-08-08T00:23:01;99975.91;;;15.73;66.17
68107;BME280;54892;47.488;19.026;2023-08-08T00:26:04;99967.16;;;15.72;66.17
68107;BME280;54892;47.488;19.026;2023-08-08T00:29:09;99974.34;;;15.72;66.02
68107;BME280;54892;47.488;19.026;2023-08-08T00:32:12;99965.75;;;15.75;65.65
68107;BME280;54892;47.488;19.026;2023-08-08T00:35:15;99975.91;;;15.73;65.84
68107;BME280;54892;47.488;19.026;2023-08-08T00:38:18;99977.28;;;15.70;66.30
68107;BME280;54892;47.488;19.026;2023-08-08T00:41:21;99972.16;;;15.74;66.00
68107;BME280;54892;47.488;19.026;2023-08-08T00:44:26;99979.06;;;15.75;65.87
68107;BME280;54892;47.488;19.026;2023-08-08T00:47:30;99986.97;;;15.80;65.76
68107;BME280;54892;47.488;19.026;2023-08-08T00:50:35;99979.66;;;15.72;66.10
68107;BME280;54892;47.488;19.026;2023-08-08T00:53:41;99984.91;;;15.77;66.04
68107;BME280;54892;47.488;19.026;2023-08-08T00:56:45;99992.87;;;15.77;66.45
68107;BME280;54892;47.488;19.026;2023-08-08T00:59:50;99990.38;;;15.66;66.33
68107;BME280;54892;47.488;19.026;2023-08-08T01:02:53;99995.00;;;15.61;66.96
68107;BME280;54892;47.488;19.026;2023-08-08T01:06:02;99993.91;;;15.62;66.51
68107;BME280;54892;47.488;19.026;2023-08-08T01:09:17;100004.31;;;15.58;67.21
68107;BME280;54892;47.488;19.026;2023-08-08T01:12:25;99994.84;;;15.52;67.20
68107;BME280;54892;47.488;19.026;2023-08-08T01:15:30;100003.25;;;15.59;66.89
68107;BME280;54892;47.488;19.026;2023-08-08T01:18:37;100010.31;;;15.50;67.39
68107;BME280;54892;47.488;19.026;2023-08-08T01:21:43;100006.97;;;15.58;67.21
68107;BME280;54892;47.488;19.026;2023-08-08T01:24:49;100000.59;;;15.59;67.08
68107;BME280;54892;47.488;19.026;2023-08-08T01:27:53;100001.75;;;15.53;67.58
68107;BME280;54892;47.488;19.026;2023-08-08T01:30:56;99998.22;;;15.58;67.88
68107;BME280;54892;47.488;19.026;2023-08-08T01:34:00;100008.66;;;15.54;67.98
68107;BME280;54892;47.488;19.026;2023-08-08T01:37:10;99994.72;;;15.43;68.38
68107;BME280;54892;47.488;19.026;2023-08-08T01:40:17;99996.84;;;15.41;68.63
68107;BME280;54892;47.488;19.026;2023-08-08T01:43:20;99990.00;;;15.35;68.91
68107;BME280;54892;47.488;19.026;2023-08-08T01:46:26;99987.94;;;15.32;69.20
68107;BME280;54892;47.488;19.026;2023-08-08T01:49:29;99992.69;;;15.35;69.33
68107;BME280;54892;47.488;19.026;2023-08-08T01:52:32;99997.50;;;15.33;69.56
68107;BME280;54892;47.488;19.026;2023-08-08T01:55:38;100002.31;;;15.31;69.80
68107;BME280;54892;47.488;19.026;2023-08-08T01:58:43;100002.59;;;15.29;69.85
68107;BME280;54892;47.488;19.026;2023-08-08T02:01:46;100003.03;;;15.36;69.61
68107;BME280;54892;47.488;19.026;2023-08-08T02:04:50;100006.06;;;15.30;69.95
68107;BME280;54892;47.488;19.026;2023-08-08T02:07:53;100014.91;;;15.25;70.22
68107;BME280;54892;47.488;19.026;2023-08-08T02:10:58;100002.69;;;15.24;70.46
68107;BME280;54892;47.488;19.026;2023-08-08T02:14:02;100013.75;;;15.31;70.07
68107;BME280;54892;47.488;19.026;2023-08-08T02:17:06;100019.19;;;15.21;70.62
68107;BME280;54892;47.488;19.026;2023-08-08T02:20:10;100025.81;;;15.23;70.25
68107;BME280;54892;47.488;19.026;2023-08-08T02:23:14;100015.69;;;15.26;70.37
68107;BME280;54892;47.488;19.026;2023-08-08T02:26:19;100032.53;;;15.16;70.81
68107;BME280;54892;47.488;19.026;2023-08-08T02:29:23;100026.38;;;15.20;70.63
68107;BME280;54892;47.488;19.026;2023-08-08T02:32:26;100029.84;;;15.21;70.62
68107;BME280;54892;47.488;19.026;2023-08-08T02:35:29;100030.41;;;15.18;70.72
68107;BME280;54892;47.488;19.026;2023-08-08T02:38:33;100037.31;;;15.19;70.73
68107;BME280;54892;47.488;19.026;2023-08-08T02:41:38;100033.56;;;15.20;70.43
68107;BME280;54892;47.488;19.026;2023-08-08T02:44:41;100036.00;;;15.16;70.78
68107;BME280;54892;47.488;19.026;2023-08-08T02:47:45;100026.28;;;15.06;71.39
68107;BME280;54892;47.488;19.026;2023-08-08T02:50:48;100043.56;;;15.04;71.89
68107;BME280;54892;47.488;19.026;2023-08-08T02:53:52;100044.66;;;15.03;71.82
68107;BME280;54892;47.488;19.026;2023-08-08T02:56:56;100044.34;;;15.10;71.74
68107;BME280;54892;47.488;19.026;2023-08-08T03:00:00;100033.69;;;15.10;71.28
68107;BME280;54892;47.488;19.026;2023-08-08T03:03:05;100038.22;;;15.09;71.03
68107;BME280;54892;47.488;19.026;2023-08-08T03:06:08;100038.00;;;15.05;71.19
68107;BME280;54892;47.488;19.026;2023-08-08T03:09:12;100043.00;;;15.07;70.74
68107;BME280;54892;47.488;19.026;2023-08-08T03:12:17;100039.94;;;15.00;71.30
68107;BME280;54892;47.488;19.026;2023-08-08T03:15:20;100031.59;;;15.06;70.84
68107;BME280;54892;47.488;19.026;2023-08-08T03:18:24;100031.09;;;15.04;71.02
68107;BME280;54892;47.488;19.026;2023-08-08T03:21:27;100029.00;;;15.01;71.35
68107;BME280;54892;47.488;19.026;2023-08-08T03:24:31;100028.69;;;15.03;70.89
68107;BME280;54892;47.488;19.026;2023-08-08T03:27:35;100043.41;;;14.95;71.45
68107;BME280;54892;47.488;19.026;2023-08-08T03:30:39;100043.09;;;15.02;70.95
68107;BME280;54892;47.488;19.026;2023-08-08T03:33:42;100051.06;;;15.02;71.04
68107;BME280;54892;47.488;19.026;2023-08-08T03:36:45;100055.88;;;15.00;70.91
68107;BME280;54892;47.488;19.026;2023-08-08T03:39:49;100060.44;;;14.94;71.18
68107;BME280;54892;47.488;19.026;2023-08-08T03:42:53;100063.03;;;14.99;70.77
68107;BME280;54892;47.488;19.026;2023-08-08T03:45:57;100063.13;;;14.94;71.15
68107;BME280;54892;47.488;19.026;2023-08-08T03:49:01;100080.63;;;14.95;70.91
68107;BME280;54892;47.488;19.026;2023-08-08T03:52:05;100086.22;;;14.94;70.78
68107;BME280;54892;47.488;19.026;2023-08-08T03:55:09;100097.16;;;14.92;70.78
68107;BME280;54892;47.488;19.026;2023-08-08T03:58:14;100100.59;;;14.92;70.92
68107;BME280;54892;47.488;19.026;2023-08-08T04:01:17;100097.69;;;14.89;70.94
68107;BME280;54892;47.488;19.026;2023-08-08T04:04:20;100099.22;;;14.95;70.49
68107;BME280;54892;47.488;19.026;2023-08-08T04:07:24;100106.41;;;14.95;70.96
68107;BME280;54892;47.488;19.026;2023-08-08T04:10:27;100109.59;;;14.97;70.75
68107;BME280;54892;47.488;19.026;2023-08-08T04:13:32;100112.03;;;14.93;70.80
68107;BME280;54892;47.488;19.026;2023-08-08T04:16:35;100112.28;;;14.91;70.66
68107;BME280;54892;47.488;19.026;2023-08-08T04:19:39;100127.44;;;14.91;70.69
68107;BME280;54892;47.488;19.026;2023-08-08T04:22:43;100135.66;;;14.95;71.06
68107;BME280;54892;47.488;19.026;2023-08-08T04:25:46;100131.06;;;15.00;70.05
68107;BME280;54892;47.488;19.026;2023-08-08T04:28:51;100136.59;;;15.04;70.17
68107;BME280;54892;47.488;19.026;2023-08-08T04:31:55;100129.97;;;15.06;69.91
68107;BME280;54892;47.488;19.026;2023-08-08T04:34:59;100136.13;;;15.02;69.48
68107;BME280;54892;47.488;19.026;2023-08-08T04:38:03;100135.28;;;15.06;69.59
68107;BME280;54892;47.488;19.026;2023-08-08T04:41:07;100130.41;;;15.14;69.03
68107;BME280;54892;47.488;19.026;2023-08-08T04:44:11;100131.25;;;15.09;69.49
68107;BME280;54892;47.488;19.026;2023-08-08T04:47:14;100148.28;;;15.08;69.62
68107;BME280;54892;47.488;19.026;2023-08-08T04:50:18;100147.66;;;15.16;69.75
68107;BME280;54892;47.488;19.026;2023-08-08T04:53:21;100145.84;;;15.12;69.60
68107;BME280;54892;47.488;19.026;2023-08-08T04:56:24;100147.91;;;15.20;69.28
68107;BME280;54892;47.488;19.026;2023-08-08T04:59:30;100140.69;;;15.20;69.54
68107;BME280;54892;47.488;19.026;2023-08-08T05:02:33;100142.97;;;15.32;69.23
68107;BME280;54892;47.488;19.026;2023-08-08T05:05:36;100144.09;;;15.50;68.20
68107;BME280;54892;47.488;19.026;2023-08-08T05:08:40;100140.69;;;15.45;68.37
68107;BME280;54892;47.488;19.026;2023-08-08T05:11:44;100142.84;;;15.43;68.35
68107;BME280;54892;47.488;19.026;2023-08-08T05:14:48;100143.34;;;15.45;68.44
68107;BME280;54892;47.488;19.026;2023-08-08T05:17:52;100147.91;;;15.44;68.06
68107;BME280;54892;47.488;19.026;2023-08-08T05:20:56;100146.00;;;15.45;68.24
68107;BME280;54892;47.488;19.026;2023-08-08T05:24:01;100151.09;;;15.65;67.56
68107;BME280;54892;47.488;19.026;2023-08-08T05:27:05;100160.31;;;15.73;67.10
68107;BME280;54892;47.488;19.026;2023-08-08T05:30:11;100158.69;;;15.77;67.05
68107;BME280;54892;47.488;19.026;2023-08-08T05:33:15;100158.69;;;15.77;66.82
68107;BME280;54892;47.488;19.026;2023-08-08T05:36:18;100168.50;;;15.77;66.60
68107;BME280;54892;47.488;19.026;2023-08-08T05:39:22;100167.38;;;15.83;66.21
68107;BME280;54892;47.488;19.026;2023-08-08T05:42:25;100172.94;;;15.87;66.26
68107;BME280;54892;47.488;19.026;2023-08-08T05:45:30;100162.97;;;15.97;65.84
68107;BME280;54892;47.488;19.026;2023-08-08T05:48:33;100163.75;;;15.98;66.01
68107;BME280;54892;47.488;19.026;2023-08-08T05:51:37;100167.16;;;16.04;66.23
68107;BME280;54892;47.488;19.026;2023-08-08T05:54:40;100168.12;;;16.08;65.61
68107;BME280;54892;47.488;19.026;2023-08-08T05:57:43;100172.31;;;16.14;66.05
68107;BME280;54892;47.488;19.026;2023-08-08T06:00:48;100168.03;;;16.18;65.64
68107;BME280;54892;47.488;19.026;2023-08-08T06:03:51;100170.22;;;16.30;65.04
68107;BME280;54892;47.488;19.026;2023-08-08T06:06:55;100169.94;;;16.32;65.53
68107;BME280;54892;47.488;19.026;2023-08-08T06:09:59;100170.34;;;16.39;64.95
68107;BME280;54892;47.488;19.026;2023-08-08T06:13:04;100176.41;;;16.44;64.77
68107;BME280;54892;47.488;19.026;2023-08-08T06:16:08;100178.91;;;16.55;64.26
68107;BME280;54892;47.488;19.026;2023-08-08T06:19:11;100182.81;;;16.63;63.88
68107;BME280;54892;47.488;19.026;2023-08-08T06:22:16;100183.91;;;16.75;62.87
68107;BME280;54892;47.488;19.026;2023-08-08T06:25:20;100188.09;;;16.82;62.57
68107;BME280;54892;47.488;19.026;2023-08-08T06:28:23;100185.91;;;16.84;62.65
68107;BME280;54892;47.488;19.026;2023-08-08T06:31:29;100196.16;;;16.96;62.05
68107;BME280;54892;47.488;19.026;2023-08-08T06:34:32;100198.72;;;17.01;61.07
68107;BME280;54892;47.488;19.026;2023-08-08T06:37:36;100186.88;;;17.07;60.73
68107;BME280;54892;47.488;19.026;2023-08-08T06:40:40;100192.59;;;17.14;60.50
68107;BME280;54892;47.488;19.026;2023-08-08T06:43:43;100189.75;;;17.11;60.90
68107;BME280;54892;47.488;19.026;2023-08-08T06:46:47;100191.38;;;17.26;60.54
68107;BME280;54892;47.488;19.026;2023-08-08T06:49:51;100197.66;;;17.30;60.86
68107;BME280;54892;47.488;19.026;2023-08-08T06:52:54;100200.16;;;17.40;60.77
68107;BME280;54892;47.488;19.026;2023-08-08T06:55:58;100208.47;;;17.53;59.86
68107;BME280;54892;47.488;19.026;2023-08-08T06:59:01;100204.00;;;17.62;59.21
68107;BME280;54892;47.488;19.026;2023-08-08T07:02:06;100205.81;;;17.67;59.27
68107;BME280;54892;47.488;19.026;2023-08-08T07:05:09;100202.34;;;17.80;59.57
68107;BME280;54892;47.488;19.026;2023-08-08T07:08:13;100196.47;;;18.06;58.53
68107;BME280;54892;47.488;19.026;2023-08-08T07:11:16;100196.25;;;18.16;57.84
68107;BME280;54892;47.488;19.026;2023-08-08T07:14:20;100192.56;;;18.26;57.13
68107;BME280;54892;47.488;19.026;2023-08-08T07:17:25;100203.28;;;18.49;56.03
68107;BME280;54892;47.488;19.026;2023-08-08T07:20:28;100208.12;;;18.69;55.49
68107;BME280;54892;47.488;19.026;2023-08-08T07:23:32;100215.34;;;19.14;53.46
68107;BME280;54892;47.488;19.026;2023-08-08T07:26:35;100205.97;;;19.75;51.80
68107;BME280;54892;47.488;19.026;2023-08-08T07:29:39;100204.91;;;20.73;49.53
68107;BME280;54892;47.488;19.026;2023-08-08T07:32:44;100216.03;;;21.87;45.79
68107;BME280;54892;47.488;19.026;2023-08-08T07:35:48;100220.53;;;22.59;44.18
68107;BME280;54892;47.488;19.026;2023-08-08T07:38:51;100226.13;;;23.00;43.30
68107;BME280;54892;47.488;19.026;2023-08-08T07:41:58;100224.47;;;23.08;42.54
68107;BME280;54892;47.488;19.026;2023-08-08T07:45:02;100233.94;;;23.39;41.12
68107;BME280;54892;47.488;19.026;2023-08-08T07:48:07;100228.03;;;24.24;39.62
68107;BME280;54892;47.488;19.026;2023-08-08T07:51:10;100232.38;;;24.85;38.76
68107;BME280;54892;47.488;19.026;2023-08-08T07:54:14;100244.44;;;25.20;37.64
68107;BME280;54892;47.488;19.026;2023-08-08T07:57:18;100232.63;;;25.76;36.59
68107;BME280;54892;47.488;19.026;2023-08-08T08:00:21;100237.78;;;26.80;35.38
68107;BME280;54892;47.488;19.026;2023-08-08T08:03:27;100231.66;;;27.29;34.01
68107;BME280;54892;47.488;19.026;2023-08-08T08:06:31;100234.00;;;27.58;33.01
68107;BME280;54892;47.488;19.026;2023-08-08T08:09:35;100235.28;;;27.64;33.46
68107;BME280;54892;47.488;19.026;2023-08-08T08:12:38;100230.66;;;27.41;33.24
68107;BME280;54892;47.488;19.026;2023-08-08T08:15:42;100239.56;;;27.15;32.83
68107;BME280;54892;47.488;19.026;2023-08-08T08:18:47;100239.91;;;26.90;33.82
68107;BME280;54892;47.488;19.026;2023-08-08T08:21:50;100238.06;;;25.96;34.67
68107;BME280;54892;47.488;19.026;2023-08-08T08:24:54;100224.81;;;25.23;37.14
68107;BME280;54892;47.488;19.026;2023-08-08T08:27:57;100232.69;;;24.39;37.84
68107;BME280;54892;47.488;19.026;2023-08-08T08:31:04;100234.16;;;23.71;37.75
68107;BME280;54892;47.488;19.026;2023-08-08T08:34:09;100234.16;;;23.21;38.47
68107;BME280;54892;47.488;19.026;2023-08-08T08:37:12;100241.03;;;22.85;38.91
68107;BME280;54892;47.488;19.026;2023-08-08T08:40:15;100239.72;;;22.70;39.86
68107;BME280;54892;47.488;19.026;2023-08-08T08:43:18;100248.03;;;22.44;40.42
68107;BME280;54892;47.488;19.026;2023-08-08T08:46:25;100242.56;;;22.31;40.19
68107;BME280;54892;47.488;19.026;2023-08-08T08:49:31;100236.28;;;22.06;40.77
68107;BME280;54892;47.488;19.026;2023-08-08T08:52:35;100236.94;;;22.03;41.62
68107;BME280;54892;47.488;19.026;2023-08-08T08:55:38;100241.69;;;21.97;40.96
68107;BME280;54892;47.488;19.026;2023-08-08T08:58:42;100230.22;;;21.88;41.00
68107;BME280;54892;47.488;19.026;2023-08-08T09:01:45;100231.34;;;21.87;42.41
68107;BME280;54892;47.488;19.026;2023-08-08T09:04:50;100228.94;;;21.94;42.43
68107;BME280;54892;47.488;19.026;2023-08-08T09:07:54;100240.00;;;21.93;43.23
68107;BME280;54892;47.488;19.026;2023-08-08T09:10:58;100229.69;;;21.73;43.75
68107;BME280;54892;47.488;19.026;2023-08-08T09:14:03;100234.41;;;21.77;44.51
68107;BME280;54892;47.488;19.026;2023-08-08T09:17:10;100239.63;;;21.73;44.38
68107;BME280;54892;47.488;19.026;2023-08-08T09:20:17;100245.84;;;21.56;44.54
68107;BME280;54892;47.488;19.026;2023-08-08T09:23:21;100235.91;;;21.56;44.16
68107;BME280;54892;47.488;19.026;2023-08-08T09:26:24;100241.75;;;21.50;43.90
68107;BME280;54892;47.488;19.026;2023-08-08T09:29:28;100246.47;;;21.23;45.01
68107;BME280;54892;47.488;19.026;2023-08-08T09:32:31;100244.19;;;21.42;44.68
68107;BME280;54892;47.488;19.026;2023-08-08T09:35:39;100242.91;;;21.49;44.50
68107;BME280;54892;47.488;19.026;2023-08-08T09:38:42;100253.19;;;21.47;43.93
68107;BME280;54892;47.488;19.026;2023-08-08T09:41:45;100246.38;;;21.49;43.41
68107;BME280;54892;47.488;19.026;2023-08-08T09:44:50;100244.34;;;21.37;43.51
68107;BME280;54892;47.488;19.026;2023-08-08T09:47:54;100241.06;;;21.32;45.06
68107;BME280;54892;47.488;19.026;2023-08-08T09:51:01;100246.94;;;21.25;44.38
68107;BME280;54892;47.488;19.026;2023-08-08T09:54:04;100239.69;;;21.25;45.11
68107;BME280;54892;47.488;19.026;2023-08-08T09:57:09;100240.59;;;21.29;43.00
68107;BME280;54892;47.488;19.026;2023-08-08T10:00:14;100244.13;;;21.12;43.10
68107;BME280;54892;47.488;19.026;2023-08-08T10:03:19;100242.56;;;21.03;44.19
68107;BME280;54892;47.488;19.026;2023-08-08T10:06:28;100247.91;;;21.11;45.19
68107;BME280;54892;47.488;19.026;2023-08-08T10:09:34;100238.72;;;21.30;45.64
68107;BME280;54892;47.488;19.026;2023-08-08T10:12:39;100247.50;;;21.39;43.85
68107;BME280;54892;47.488;19.026;2023-08-08T10:15:44;100246.12;;;21.33;45.12
68107;BME280;54892;47.488;19.026;2023-08-08T10:18:55;100229.72;;;21.26;44.05
68107;BME280;54892;47.488;19.026;2023-08-08T10:22:04;100228.72;;;21.39;44.63
68107;BME280;54892;47.488;19.026;2023-08-08T10:25:17;100234.25;;;21.34;44.53
68107;BME280;54892;47.488;19.026;2023-08-08T10:28:23;100234.09;;;21.39;44.64
68107;BME280;54892;47.488;19.026;2023-08-08T10:31:34;100225.00;;;21.53;44.54
68107;BME280;54892;47.488;19.026;2023-08-08T10:34:39;100225.06;;;21.44;43.77
68107;BME280;54892;47.488;19.026;2023-08-08T10:37:53;100217.59;;;21.50;41.55
68107;BME280;54892;47.488;19.026;2023-08-08T10:40:57;100221.91;;;21.42;42.01
68107;BME280;54892;47.488;19.026;2023-08-08T10:44:01;100207.38;;;21.43;42.20
68107;BME280;54892;47.488;19.026;2023-08-08T10:47:05;100207.69;;;21.41;41.95
68107;BME280;54892;47.488;19.026;2023-08-08T10:50:10;100213.56;;;21.35;42.53
68107;BME280;54892;47.488;19.026;2023-08-08T10:53:15;100212.78;;;21.34;43.68
68107;BME280;54892;47.488;19.026;2023-08-08T10:56:19;100206.63;;;21.34;44.38
68107;BME280;54892;47.488;19.026;2023-08-08T10:59:26;100211.97;;;21.42;44.07
68107;BME280;54892;47.488;19.026;2023-08-08T11:02:30;100215.25;;;21.48;44.20
68107;BME280;54892;47.488;19.026;2023-08-08T11:05:35;100215.53;;;21.55;44.26
68107;BME280;54892;47.488;19.026;2023-08-08T11:08:40;100219.63;;;21.53;44.62
68107;BME280;54892;47.488;19.026;2023-08-08T11:11:44;100221.69;;;21.56;43.85
68107;BME280;54892;47.488;19.026;2023-08-08T11:14:48;100220.09;;;21.55;44.19
68107;BME280;54892;47.488;19.026;2023-08-08T11:17:51;100209.38;;;21.55;44.30
68107;BME280;54892;47.488;19.026;2023-08-08T11:20:55;100209.22;;;21.60;45.12
68107;BME280;54892;47.488;19.026;2023-08-08T11:24:08;100227.03;;;21.65;45.26
68107;BME280;54892;47.488;19.026;2023-08-08T11:27:11;100213.16;;;21.63;45.75
68107;BME280;54892;47.488;19.026;2023-08-08T11:30:37;100221.28;;;21.75;44.06
68107;BME280;54892;47.488;19.026;2023-08-08T11:33:40;100212.00;;;21.72;43.81
68107;BME280;54892;47.488;19.026;2023-08-08T11:36:45;100211.41;;;21.67;43.96
68107;BME280;54892;47.488;19.026;2023-08-08T11:39:51;100217.75;;;21.62;43.66
68107;BME280;54892;47.488;19.026;2023-08-08T11:42:55;100207.25;;;21.69;41.88
68107;BME280;54892;47.488;19.026;2023-08-08T11:46:00;100211.34;;;21.75;43.44
68107;BME280;54892;47.488;19.026;2023-08-08T11:49:04;100206.63;;;21.94;43.20
68107;BME280;54892;47.488;19.026;2023-08-08T11:52:08;100196.69;;;21.94;43.48
68107;BME280;54892;47.488;19.026;2023-08-08T11:55:13;100199.63;;;22.01;42.90
68107;BME280;54892;47.488;19.026;2023-08-08T11:58:17;100193.53;;;22.13;43.14
68107;BME280;54892;47.488;19.026;2023-08-08T12:01:22;100185.06;;;22.02;42.46
68107;BME280;54892;47.488;19.026;2023-08-08T12:04:26;100187.88;;;22.06;42.79
68107;BME280;54892;47.488;19.026;2023-08-08T12:07:31;100181.00;;;21.96;42.84
68107;BME280;54892;47.488;19.026;2023-08-08T12:10:36;100180.56;;;21.94;43.37
68107;BME280;54892;47.488;19.026;2023-08-08T12:13:41;100183.84;;;22.00;41.79
68107;BME280;54892;47.488;19.026;2023-08-08T12:16:44;100181.47;;;21.98;40.94
68107;BME280;54892;47.488;19.026;2023-08-08T12:19:48;100172.56;;;22.07;40.84
68107;BME280;54892;47.488;19.026;2023-08-08T12:22:51;100172.69;;;22.10;41.78
68107;BME280;54892;47.488;19.026;2023-08-08T12:25:57;100170.81;;;22.11;41.10
68107;BME280;54892;47.488;19.026;2023-08-08T12:29:00;100168.41;;;22.09;40.39
68107;BME280;54892;47.488;19.026;2023-08-08T12:32:03;100169.94;;;22.19;39.40
68107;BME280;54892;47.488;19.026;2023-08-08T12:35:09;100167.19;;;22.07;39.79
68107;BME280;54892;47.488;19.026;2023-08-08T12:38:12;100162.19;;;21.96;40.59
68107;BME280;54892;47.488;19.026;2023-08-08T12:41:17;100165.72;;;22.09;40.92
68107;BME280;54892;47.488;19.026;2023-08-08T12:44:21;100153.00;;;21.97;40.71
68107;BME280;54892;47.488;19.026;2023-08-08T12:47:24;100166.66;;;22.13;41.22
68107;BME280;54892;47.488;19.026;2023-08-08T12:50:27;100154.28;;;22.33;40.30
68107;BME280;54892;47.488;19.026;2023-08-08T12:53:31;100149.84;;;22.38;40.58
68107;BME280;54892;47.488;19.026;2023-08-08T12:56:36;100149.94;;;22.41;40.16
68107;BME280;54892;47.488;19.026;2023-08-08T12:59:39;100143.62;;;22.58;38.58
68107;BME280;54892;47.488;19.026;2023-08-08T13:02:44;100152.97;;;22.61;38.82
68107;BME280;54892;47.488;19.026;2023-08-08T13:05:47;100149.72;;;22.68;38.72
68107;BME280;54892;47.488;19.026;2023-08-08T13:08:51;100157.81;;;22.92;39.10
68107;BME280;54892;47.488;19.026;2023-08-08T13:11:55;100147.62;;;22.98;39.60
68107;BME280;54892;47.488;19.026;2023-08-08T13:14:59;100154.66;;;22.90;38.48
68107;BME280;54892;47.488;19.026;2023-08-08T13:18:04;100156.44;;;22.74;38.73
68107;BME280;54892;47.488;19.026;2023-08-08T13:21:08;100150.66;;;22.50;38.58
68107;BME280;54892;47.488;19.026;2023-08-08T13:24:12;100152.91;;;22.27;39.21
68107;BME280;54892;47.488;19.026;2023-08-08T13:27:17;100159.72;;;22.12;39.91
68107;BME280;54892;47.488;19.026;2023-08-08T13:30:21;100170.72;;;21.98;40.78
68107;BME280;54892;47.488;19.026;2023-08-08T13:33:25;100172.41;;;21.82;41.82
68107;BME280;54892;47.488;19.026;2023-08-08T13:36:28;100172.56;;;21.55;42.18
68107;BME280;54892;47.488;19.026;2023-08-08T13:39:32;100169.19;;;21.37;41.90
68107;BME280;54892;47.488;19.026;2023-08-08T13:42:37;100170.66;;;21.26;41.30
68107;BME280;54892;47.488;19.026;2023-08-08T13:45:43;100167.41;;;21.11;41.02
68107;BME280;54892;47.488;19.026;2023-08-08T13:48:46;100169.63;;;21.09;41.21
68107;BME280;54892;47.488;19.026;2023-08-08T13:51:50;100160.16;;;21.03;40.65
68107;BME280;54892;47.488;19.026;2023-08-08T13:54:54;100166.03;;;20.96;40.82
68107;BME280;54892;47.488;19.026;2023-08-08T13:58:00;100164.03;;;20.84;41.20
68107;BME280;54892;47.488;19.026;2023-08-08T14:01:04;100158.38;;;20.77;41.63
68107;BME280;54892;47.488;19.026;2023-08-08T14:04:08;100171.44;;;20.79;41.68
68107;BME280;54892;47.488;19.026;2023-08-08T14:07:12;100152.03;;;20.73;41.65
68107;BME280;54892;47.488;19.026;2023-08-08T14:10:15;100153.94;;;20.73;42.48
68107;BME280;54892;47.488;19.026;2023-08-08T14:13:21;100152.69;;;20.70;42.16
68107;BME280;54892;47.488;19.026;2023-08-08T14:16:24;100153.94;;;20.73;42.56
68107;BME280;54892;47.488;19.026;2023-08-08T14:19:28;100154.22;;;20.71;42.73
68107;BME280;54892;47.488;19.026;2023-08-08T14:22:34;100149.69;;;20.72;42.62
68107;BME280;54892;47.488;19.026;2023-08-08T14:25:37;100152.03;;;20.73;42.97
68107;BME280;54892;47.488;19.026;2023-08-08T14:28:43;100157.59;;;20.77;43.70
68107;BME280;54892;47.488;19.026;2023-08-08T14:31:47;100160.25;;;20.86;42.67
68107;BME280;54892;47.488;19.026;2023-08-08T14:35:00;100149.22;;;20.78;42.86
68107;BME280;54892;47.488;19.026;2023-08-08T14:38:05;100146.06;;;20.76;43.21
68107;BME280;54892;47.488;19.026;2023-08-08T14:41:09;100141.16;;;20.69;43.45
68107;BME280;54892;47.488;19.026;2023-08-08T14:44:14;100140.53;;;20.73;44.16
68107;BME280;54892;47.488;19.026;2023-08-08T14:47:17;100141.00;;;20.83;43.35
68107;BME280;54892;47.488;19.026;2023-08-08T14:50:20;100142.37;;;20.90;43.50
68107;BME280;54892;47.488;19.026;2023-08-08T14:53:25;100141.56;;;20.98;44.36
68107;BME280;54892;47.488;19.026;2023-08-08T14:56:29;100137.50;;;21.22;44.09
68107;BME280;54892;47.488;19.026;2023-08-08T14:59:34;100126.22;;;21.37;42.72
68107;BME280;54892;47.488;19.026;2023-08-08T15:02:37;100128.97;;;21.50;43.75
68107;BME280;54892;47.488;19.026;2023-08-08T15:05:41;100127.94;;;21.72;43.41
68107;BME280;54892;47.488;19.026;2023-08-08T15:08:47;100129.47;;;21.73;42.07
68107;BME280;54892;47.488;19.026;2023-08-08T15:11:51;100127.47;;;21.70;43.56
68107;BME280;54892;47.488;19.026;2023-08-08T15:14:58;100129.75;;;21.80;42.34
68107;BME280;54892;47.488;19.026;2023-08-08T15:18:01;100125.50;;;21.79;42.52
68107;BME280;54892;47.488;19.026;2023-08-08T15:21:05;100126.72;;;21.82;41.35
68107;BME280;54892;47.488;19.026;2023-08-08T15:24:09;100125.91;;;21.90;39.64
68107;BME280;54892;47.488;19.026;2023-08-08T15:27:12;100121.44;;;21.73;40.42
68107;BME280;54892;47.488;19.026;2023-08-08T15:30:17;100115.63;;;21.71;41.35
68107;BME280;54892;47.488;19.026;2023-08-08T15:33:21;100110.38;;;21.74;40.81
68107;BME280;54892;47.488;19.026;2023-08-08T15:36:25;100117.31;;;21.75;40.99
68107;BME280;54892;47.488;19.026;2023-08-08T15:39:28;100115.56;;;21.80;40.42
68107;BME280;54892;47.488;19.026;2023-08-08T15:42:32;100109.62;;;21.65;40.47
68107;BME280;54892;47.488;19.026;2023-08-08T15:45:37;100103.53;;;21.56;41.39
68107;BME280;54892;47.488;19.026;2023-08-08T15:48:40;100107.94;;;21.60;41.29
68107;BME280;54892;47.488;19.026;2023-08-08T15:51:44;100107.28;;;21.64;40.67